Here is the Quick Look data you requested

The Data originates at the National Weather Service, and is made available here by the UAlbany Department of Atmospheric and Environmental Sciences

Surface Observations

KFKN 151955Z AUTO 16003KT 10SM CLR 34/21 A2993 RMK AO2 T03440206=
KFKN 152015Z AUTO 00000KT 10SM CLR 35/20 A2992 RMK AO2 T03470203=
KFKN 152035Z AUTO 24004KT 10SM CLR 35/20 A2992 RMK AO2 T03490199=
KFKN 152055Z AUTO 25004KT 10SM CLR 35/20 A2992 RMK AO2 T03490198=
KFKN 152115Z AUTO 21004KT 10SM CLR 34/20 A2992 RMK AO2 T03430204=
KFKN 152135Z AUTO 18007KT 10SM CLR 34/21 A2991 RMK AO2 T03400206=
KFKN 152155Z AUTO 16005KT 10SM CLR 35/22 A2990 RMK AO2 T03450215=
KFKN 152215Z AUTO 19003KT 10SM CLR 34/22 A2989 RMK AO2 T03400215=
KFKN 152235Z AUTO 18006KT 10SM CLR 34/22 A2989 RMK AO2 T03360219=
KFKN 152255Z AUTO 17003KT 10SM CLR 33/23 A2989 RMK AO2 T03290226=
KFKN 152315Z AUTO 18004KT 10SM CLR 33/23 A2990 RMK AO2 T03290230=
KFKN 152335Z AUTO 15004KT 10SM CLR 32/24 A2991 RMK AO2 T03230236=
KFKN 152355Z AUTO 16003KT 10SM CLR 31/24 A2992 RMK AO2 T03130241 10351 20313=
KFKN 160015Z AUTO 16004KT 10SM CLR 31/24 A2992 RMK AO2 T03080241=
KFKN 160035Z AUTO 00000KT 10SM CLR 30/25 A2992 RMK AO2 T03020245=
KFKN 160055Z AUTO 00000KT 10SM CLR 29/25 A2992 RMK AO2 T02940247=
KFKN 160115Z AUTO 00000KT 10SM CLR 29/25 A2991 RMK AO2 T02900248=
KFKN 160135Z AUTO 17005KT 10SM CLR 29/25 A2991 RMK AO2 T02860247=
KFKN 160155Z AUTO 18006KT 10SM CLR 29/24 A2992 RMK AO2 T02930243=
KFKN 160215Z AUTO 18005KT 10SM CLR 29/24 A2992 RMK AO2 T02910240=
KFKN 160235Z AUTO 18006KT 10SM CLR 29/24 A2993 RMK AO2 T02900236=
KFKN 160255Z AUTO 17007KT 10SM CLR 29/24 A2992 RMK AO2 T02860236=
KFKN 160315Z AUTO 20005KT 10SM CLR 28/24 A2992 RMK AO2 T02810236=
KFKN 160335Z AUTO 18006KT 10SM CLR 28/24 A2992 RMK AO2 T02790237=
KFKN 160355Z AUTO 21006KT 10SM CLR 28/24 A2993 RMK AO2 T02770238=
KFKN 160415Z AUTO 21005KT 10SM CLR 28/24 A2992 RMK AO2 T02750239=
KFKN 160435Z AUTO 20005KT 10SM CLR 27/24 A2992 RMK AO2 T02710237=
KFKN 160455Z AUTO 21007KT 10SM CLR 27/23 A2992 RMK AO2 T02730230 403510236=
KFKN 160515Z AUTO 21004KT 10SM CLR 27/24 A2992 RMK AO2 T02700236=
KFKN 160535Z AUTO 21005KT 10SM CLR 27/23 A2992 RMK AO2 T02670228=
KFKN 160555Z AUTO 20006KT 10SM CLR 27/22 A2991 RMK AO2 T02650221 10312 20265=
KFKN 160615Z AUTO 21005KT 10SM CLR 26/21 A2990 RMK AO2 T02620214=
KFKN 160635Z AUTO 21006KT 10SM CLR 26/21 A2990 RMK AO2 T02600211=
KFKN 160655Z AUTO 21007KT 10SM CLR 26/21 A2990 RMK AO2 T02570210=
KFKN 160715Z AUTO 21005KT 10SM CLR 26/21 A2991 RMK AO2 T02550210=
KFKN 160735Z AUTO 23003KT 10SM CLR 25/21 A2991 RMK AO2 T02530209=
KFKN 160755Z AUTO 20003KT 10SM CLR 25/21 A2991 RMK AO2 T02460210=
KFKN 160815Z AUTO 20004KT 10SM CLR 25/21 A2992 RMK AO2 T02460208=
KFKN 160835Z AUTO 20004KT 10SM CLR 25/21 A2992 RMK AO2 T02460208=
KFKN 160855Z AUTO 22004KT 10SM CLR 24/21 A2992 RMK AO2 T02410208=
KFKN 160915Z AUTO 21003KT 10SM CLR 24/21 A2993 RMK AO2 T02410208=
KFKN 160935Z AUTO 00000KT 10SM CLR 24/21 A2993 RMK AO2 T02420210=
KFKN 160955Z AUTO 19006KT 10SM CLR 24/21 A2994 RMK AO2 T02410210=
KFKN 161015Z AUTO 18005KT 10SM CLR 24/21 A2994 RMK AO2 T02400210=
KFKN 161035Z AUTO 19005KT 10SM CLR 24/21 A2993 RMK AO2 T02390210=
KFKN 161055Z AUTO 18006KT 10SM CLR 24/21 A2993 RMK AO2 T02410212=
KFKN 161115Z AUTO 18005KT 10SM CLR 25/21 A2993 RMK AO2 T02480214=
KFKN 161135Z AUTO 19003KT 10SM CLR 25/22 A2994 RMK AO2 T02460215=
KFKN 161155Z AUTO 17007KT 10SM CLR 25/22 A2994 RMK AO2 T02500217 10265 20238=
KFKN 161215Z AUTO 19008KT 10SM CLR 26/22 A2994 RMK AO2 T02570220=
KFKN 161235Z AUTO 00000KT 10SM CLR 26/22 A2995 RMK AO2 T02570221=
KFKN 161255Z AUTO 20004KT 10SM CLR 27/22 A2995 RMK AO2 T02660224=
KFKN 161315Z AUTO 20004KT 10SM CLR 27/23 A2995 RMK AO2 T02710226=
KFKN 161335Z AUTO 18006KT 10SM CLR 28/23 A2994 RMK AO2 T02750227=
KFKN 161355Z AUTO 21007KT 10SM CLR 28/23 A2994 RMK AO2 T02770226=
KFKN 161415Z AUTO 20005KT 10SM CLR 28/23 A2994 RMK AO2 T02820230=
KFKN 161435Z AUTO 19007KT 10SM CLR 28/23 A2994 RMK AO2 T02820233=
KFKN 161455Z AUTO 17007KT 10SM CLR 29/23 A2994 RMK AO2 T02870232=
KFKN 161515Z AUTO 21008KT 10SM CLR 30/23 A2995 RMK AO2 T02960234=
KFKN 161535Z AUTO 22008KT 10SM CLR 30/23 A2995 RMK AO2 T03000234=
KFKN 161555Z AUTO 23005KT 10SM CLR 31/23 A2995 RMK AO2 T03100234=
KFKN 161615Z AUTO 21008KT 10SM CLR 32/24 A2994 RMK AO2 T03170239=
KFKN 161635Z AUTO 21007KT 10SM CLR 32/24 A2993 RMK AO2 T03180236=
KFKN 161655Z AUTO 18009KT 10SM CLR 32/24 A2993 RMK AO2 T03210236=
KFKN 161715Z AUTO 23007KT 10SM CLR 33/24 A2992 RMK AO2 T03270236=
KFKN 161735Z AUTO 19010G15KT 180V240 10SM CLR 33/23 A2992 RMK AO2 T03260234=
KFKN 161755Z AUTO 19010G15KT 10SM CLR 33/24 A2991 RMK AO2 T03300237 10330 20251=
KFKN 161815Z AUTO 20004KT 10SM CLR 33/24 A2991 RMK AO2 T03270236=
KFKN 161835Z AUTO 24005G14KT 10SM SCT037 33/24 A2991 RMK AO2 T03320237=
KFKN 161855Z AUTO 22007KT 10SM SCT037 34/24 A2990 RMK AO2 T03380241=
KFKN 161915Z AUTO 21009G15KT 10SM SCT037 34/24 A2990 RMK AO2 T03370241=
KFKN 161935Z AUTO 18010G15KT 10SM SCT037 34/24 A2988 RMK AO2 T03360240=
KFKN 161955Z AUTO 22011G14KT 180V260 10SM SCT040 33/24 A2988 RMK AO2 T03340238=
KFKN 162015Z AUTO 18010G16KT 10SM BKN040 34/24 A2988 RMK AO2 T03390239=

Decoded Surface Observations


The weather observed at FRANKLIN/J B ROS, VA (KFKN) at 03:55 PM EDT was:
  The skies were clear.
  Temperature: 93F ( 34C)  Dewpoint:  70F ( 21C)  Relative Humidity:  47%
  Winds from the SSE(160 degs) at  3 mph.
  Altimeter:29.93 inches of mercury.
  The prevailing visibility was 10 miles.

The weather observed at FRANKLIN/J B ROS, VA (KFKN) at 04:15 PM EDT was:
  The skies were clear.
  Temperature: 95F ( 35C)  Dewpoint:  68F ( 20C)  Relative Humidity:  42%
  Winds from the CLM(CLM degs) at  0 mph.
  Altimeter:29.92 inches of mercury.
  The prevailing visibility was 10 miles.

The weather observed at FRANKLIN/J B ROS, VA (KFKN) at 04:35 PM EDT was:
  The skies were clear.
  Temperature: 95F ( 35C)  Dewpoint:  68F ( 20C)  Relative Humidity:  42%
  Winds from the SW (240 degs) at  5 mph.
  Altimeter:29.92 inches of mercury.
  The prevailing visibility was 10 miles.

The weather observed at FRANKLIN/J B ROS, VA (KFKN) at 04:55 PM EDT was:
  The skies were clear.
  Temperature: 95F ( 35C)  Dewpoint:  68F ( 20C)  Relative Humidity:  42%
  Winds from the WSW(250 degs) at  5 mph.
  Altimeter:29.92 inches of mercury.
  The prevailing visibility was 10 miles.

The weather observed at FRANKLIN/J B ROS, VA (KFKN) at 05:15 PM EDT was:
  The skies were clear.
  Temperature: 93F ( 34C)  Dewpoint:  68F ( 20C)  Relative Humidity:  44%
  Winds from the SW (210 degs) at  5 mph.
  Altimeter:29.92 inches of mercury.
  The prevailing visibility was 10 miles.

The weather observed at FRANKLIN/J B ROS, VA (KFKN) at 05:35 PM EDT was:
  The skies were clear.
  Temperature: 93F ( 34C)  Dewpoint:  70F ( 21C)  Relative Humidity:  47%
  Winds from the S  (180 degs) at  8 mph.
  Altimeter:29.91 inches of mercury.
  The prevailing visibility was 10 miles.

The weather observed at FRANKLIN/J B ROS, VA (KFKN) at 05:55 PM EDT was:
  The skies were clear.
  Temperature: 95F ( 35C)  Dewpoint:  72F ( 22C)  Relative Humidity:  47%
  Winds from the SSE(160 degs) at  6 mph.
  Altimeter:29.90 inches of mercury.
  The prevailing visibility was 10 miles.

The weather observed at FRANKLIN/J B ROS, VA (KFKN) at 06:15 PM EDT was:
  The skies were clear.
  Temperature: 93F ( 34C)  Dewpoint:  72F ( 22C)  Relative Humidity:  50%
  Winds from the S  (190 degs) at  3 mph.
  Altimeter:29.89 inches of mercury.
  The prevailing visibility was 10 miles.

The weather observed at FRANKLIN/J B ROS, VA (KFKN) at 06:35 PM EDT was:
  The skies were clear.
  Temperature: 93F ( 34C)  Dewpoint:  72F ( 22C)  Relative Humidity:  50%
  Winds from the S  (180 degs) at  7 mph.
  Altimeter:29.89 inches of mercury.
  The prevailing visibility was 10 miles.

The weather observed at FRANKLIN/J B ROS, VA (KFKN) at 06:55 PM EDT was:
  The skies were clear.
  Temperature: 91F ( 33C)  Dewpoint:  73F ( 23C)  Relative Humidity:  56%
  Winds from the S  (170 degs) at  3 mph.
  Altimeter:29.89 inches of mercury.
  The prevailing visibility was 10 miles.

The weather observed at FRANKLIN/J B ROS, VA (KFKN) at 07:15 PM EDT was:
  The skies were clear.
  Temperature: 91F ( 33C)  Dewpoint:  73F ( 23C)  Relative Humidity:  56%
  Winds from the S  (180 degs) at  5 mph.
  Altimeter:29.90 inches of mercury.
  The prevailing visibility was 10 miles.

The weather observed at FRANKLIN/J B ROS, VA (KFKN) at 07:35 PM EDT was:
  The skies were clear.
  Temperature: 90F ( 32C)  Dewpoint:  75F ( 24C)  Relative Humidity:  63%
  Winds from the SE (150 degs) at  5 mph.
  Altimeter:29.91 inches of mercury.
  The prevailing visibility was 10 miles.

The weather observed at FRANKLIN/J B ROS, VA (KFKN) at 07:55 PM EDT was:
  The skies were clear.
  Temperature: 88F ( 31C)  Dewpoint:  75F ( 24C)  Relative Humidity:  66%
  Winds from the SSE(160 degs) at  3 mph.
  Altimeter:29.92 inches of mercury.
  The prevailing visibility was 10 miles.
  The maximum temperature in the past 6 hours was  95F.

The weather observed at FRANKLIN/J B ROS, VA (KFKN) at 08:15 PM EDT was:
  The skies were clear.
  Temperature: 88F ( 31C)  Dewpoint:  75F ( 24C)  Relative Humidity:  66%
  Winds from the SSE(160 degs) at  5 mph.
  Altimeter:29.92 inches of mercury.
  The prevailing visibility was 10 miles.

The weather observed at FRANKLIN/J B ROS, VA (KFKN) at 08:35 PM EDT was:
  The skies were clear.
  Temperature: 86F ( 30C)  Dewpoint:  77F ( 25C)  Relative Humidity:  75%
  Winds from the CLM(CLM degs) at  0 mph.
  Altimeter:29.92 inches of mercury.
  The prevailing visibility was 10 miles.

The weather observed at FRANKLIN/J B ROS, VA (KFKN) at 08:55 PM EDT was:
  The skies were clear.
  Temperature: 84F ( 29C)  Dewpoint:  77F ( 25C)  Relative Humidity:  79%
  Winds from the CLM(CLM degs) at  0 mph.
  Altimeter:29.92 inches of mercury.
  The prevailing visibility was 10 miles.

The weather observed at FRANKLIN/J B ROS, VA (KFKN) at 09:15 PM EDT was:
  The skies were clear.
  Temperature: 84F ( 29C)  Dewpoint:  77F ( 25C)  Relative Humidity:  79%
  Winds from the CLM(CLM degs) at  0 mph.
  Altimeter:29.91 inches of mercury.
  The prevailing visibility was 10 miles.

The weather observed at FRANKLIN/J B ROS, VA (KFKN) at 09:35 PM EDT was:
  The skies were clear.
  Temperature: 84F ( 29C)  Dewpoint:  77F ( 25C)  Relative Humidity:  79%
  Winds from the S  (170 degs) at  6 mph.
  Altimeter:29.91 inches of mercury.
  The prevailing visibility was 10 miles.

The weather observed at FRANKLIN/J B ROS, VA (KFKN) at 09:55 PM EDT was:
  The skies were clear.
  Temperature: 84F ( 29C)  Dewpoint:  75F ( 24C)  Relative Humidity:  74%
  Winds from the S  (180 degs) at  7 mph.
  Altimeter:29.92 inches of mercury.
  The prevailing visibility was 10 miles.

The weather observed at FRANKLIN/J B ROS, VA (KFKN) at 10:15 PM EDT was:
  The skies were clear.
  Temperature: 84F ( 29C)  Dewpoint:  75F ( 24C)  Relative Humidity:  74%
  Winds from the S  (180 degs) at  6 mph.
  Altimeter:29.92 inches of mercury.
  The prevailing visibility was 10 miles.

The weather observed at FRANKLIN/J B ROS, VA (KFKN) at 10:35 PM EDT was:
  The skies were clear.
  Temperature: 84F ( 29C)  Dewpoint:  75F ( 24C)  Relative Humidity:  74%
  Winds from the S  (180 degs) at  7 mph.
  Altimeter:29.93 inches of mercury.
  The prevailing visibility was 10 miles.

The weather observed at FRANKLIN/J B ROS, VA (KFKN) at 10:55 PM EDT was:
  The skies were clear.
  Temperature: 84F ( 29C)  Dewpoint:  75F ( 24C)  Relative Humidity:  74%
  Winds from the S  (170 degs) at  8 mph.
  Altimeter:29.92 inches of mercury.
  The prevailing visibility was 10 miles.

The weather observed at FRANKLIN/J B ROS, VA (KFKN) at 11:15 PM EDT was:
  The skies were clear.
  Temperature: 82F ( 28C)  Dewpoint:  75F ( 24C)  Relative Humidity:  79%
  Winds from the SSW(200 degs) at  6 mph.
  Altimeter:29.92 inches of mercury.
  The prevailing visibility was 10 miles.

The weather observed at FRANKLIN/J B ROS, VA (KFKN) at 11:35 PM EDT was:
  The skies were clear.
  Temperature: 82F ( 28C)  Dewpoint:  75F ( 24C)  Relative Humidity:  79%
  Winds from the S  (180 degs) at  7 mph.
  Altimeter:29.92 inches of mercury.
  The prevailing visibility was 10 miles.

The weather observed at FRANKLIN/J B ROS, VA (KFKN) at 11:55 PM EDT was:
  The skies were clear.
  Temperature: 82F ( 28C)  Dewpoint:  75F ( 24C)  Relative Humidity:  79%
  Winds from the SW (210 degs) at  7 mph.
  Altimeter:29.93 inches of mercury.
  The prevailing visibility was 10 miles.

The weather observed at FRANKLIN/J B ROS, VA (KFKN) at 12:15 AM EDT was:
  The skies were clear.
  Temperature: 82F ( 28C)  Dewpoint:  75F ( 24C)  Relative Humidity:  79%
  Winds from the SW (210 degs) at  6 mph.
  Altimeter:29.92 inches of mercury.
  The prevailing visibility was 10 miles.

The weather observed at FRANKLIN/J B ROS, VA (KFKN) at 12:35 AM EDT was:
  The skies were clear.
  Temperature: 81F ( 27C)  Dewpoint:  75F ( 24C)  Relative Humidity:  84%
  Winds from the SSW(200 degs) at  6 mph.
  Altimeter:29.92 inches of mercury.
  The prevailing visibility was 10 miles.

The weather observed at FRANKLIN/J B ROS, VA (KFKN) at 12:55 AM EDT was:
  The skies were clear.
  Temperature: 81F ( 27C)  Dewpoint:  73F ( 23C)  Relative Humidity:  77%
  Winds from the SW (210 degs) at  8 mph.
  Altimeter:29.92 inches of mercury.
  The prevailing visibility was 10 miles.

The weather observed at FRANKLIN/J B ROS, VA (KFKN) at 01:15 AM EDT was:
  The skies were clear.
  Temperature: 81F ( 27C)  Dewpoint:  75F ( 24C)  Relative Humidity:  84%
  Winds from the SW (210 degs) at  5 mph.
  Altimeter:29.92 inches of mercury.
  The prevailing visibility was 10 miles.

The weather observed at FRANKLIN/J B ROS, VA (KFKN) at 01:35 AM EDT was:
  The skies were clear.
  Temperature: 81F ( 27C)  Dewpoint:  73F ( 23C)  Relative Humidity:  79%
  Winds from the SW (210 degs) at  6 mph.
  Altimeter:29.92 inches of mercury.
  The prevailing visibility was 10 miles.

The weather observed at FRANKLIN/J B ROS, VA (KFKN) at 01:55 AM EDT was:
  The skies were clear.
  Temperature: 80F ( 27C)  Dewpoint:  72F ( 22C)  Relative Humidity:  77%
  Winds from the SSW(200 degs) at  7 mph.
  Altimeter:29.91 inches of mercury.
  The prevailing visibility was 10 miles.
  The maximum temperature in the past 6 hours was  88F.

The weather observed at FRANKLIN/J B ROS, VA (KFKN) at 02:15 AM EDT was:
  The skies were clear.
  Temperature: 79F ( 26C)  Dewpoint:  70F ( 21C)  Relative Humidity:  74%
  Winds from the SW (210 degs) at  6 mph.
  Altimeter:29.90 inches of mercury.
  The prevailing visibility was 10 miles.

The weather observed at FRANKLIN/J B ROS, VA (KFKN) at 02:35 AM EDT was:
  The skies were clear.
  Temperature: 79F ( 26C)  Dewpoint:  70F ( 21C)  Relative Humidity:  74%
  Winds from the SW (210 degs) at  7 mph.
  Altimeter:29.90 inches of mercury.
  The prevailing visibility was 10 miles.

The weather observed at FRANKLIN/J B ROS, VA (KFKN) at 02:55 AM EDT was:
  The skies were clear.
  Temperature: 79F ( 26C)  Dewpoint:  70F ( 21C)  Relative Humidity:  74%
  Winds from the SW (210 degs) at  8 mph.
  Altimeter:29.90 inches of mercury.
  The prevailing visibility was 10 miles.

The weather observed at FRANKLIN/J B ROS, VA (KFKN) at 03:15 AM EDT was:
  The skies were clear.
  Temperature: 79F ( 26C)  Dewpoint:  70F ( 21C)  Relative Humidity:  74%
  Winds from the SW (210 degs) at  6 mph.
  Altimeter:29.91 inches of mercury.
  The prevailing visibility was 10 miles.

The weather observed at FRANKLIN/J B ROS, VA (KFKN) at 03:35 AM EDT was:
  The skies were clear.
  Temperature: 77F ( 25C)  Dewpoint:  70F ( 21C)  Relative Humidity:  78%
  Winds from the SW (230 degs) at  3 mph.
  Altimeter:29.91 inches of mercury.
  The prevailing visibility was 10 miles.

The weather observed at FRANKLIN/J B ROS, VA (KFKN) at 03:55 AM EDT was:
  The skies were clear.
  Temperature: 77F ( 25C)  Dewpoint:  70F ( 21C)  Relative Humidity:  78%
  Winds from the SSW(200 degs) at  3 mph.
  Altimeter:29.91 inches of mercury.
  The prevailing visibility was 10 miles.

The weather observed at FRANKLIN/J B ROS, VA (KFKN) at 04:15 AM EDT was:
  The skies were clear.
  Temperature: 77F ( 25C)  Dewpoint:  70F ( 21C)  Relative Humidity:  78%
  Winds from the SSW(200 degs) at  5 mph.
  Altimeter:29.92 inches of mercury.
  The prevailing visibility was 10 miles.

The weather observed at FRANKLIN/J B ROS, VA (KFKN) at 04:35 AM EDT was:
  The skies were clear.
  Temperature: 77F ( 25C)  Dewpoint:  70F ( 21C)  Relative Humidity:  78%
  Winds from the SSW(200 degs) at  5 mph.
  Altimeter:29.92 inches of mercury.
  The prevailing visibility was 10 miles.

The weather observed at FRANKLIN/J B ROS, VA (KFKN) at 04:55 AM EDT was:
  The skies were clear.
  Temperature: 75F ( 24C)  Dewpoint:  70F ( 21C)  Relative Humidity:  83%
  Winds from the SW (220 degs) at  5 mph.
  Altimeter:29.92 inches of mercury.
  The prevailing visibility was 10 miles.

The weather observed at FRANKLIN/J B ROS, VA (KFKN) at 05:15 AM EDT was:
  The skies were clear.
  Temperature: 75F ( 24C)  Dewpoint:  70F ( 21C)  Relative Humidity:  83%
  Winds from the SW (210 degs) at  3 mph.
  Altimeter:29.93 inches of mercury.
  The prevailing visibility was 10 miles.

The weather observed at FRANKLIN/J B ROS, VA (KFKN) at 05:35 AM EDT was:
  The skies were clear.
  Temperature: 75F ( 24C)  Dewpoint:  70F ( 21C)  Relative Humidity:  83%
  Winds from the CLM(CLM degs) at  0 mph.
  Altimeter:29.93 inches of mercury.
  The prevailing visibility was 10 miles.

The weather observed at FRANKLIN/J B ROS, VA (KFKN) at 05:55 AM EDT was:
  The skies were clear.
  Temperature: 75F ( 24C)  Dewpoint:  70F ( 21C)  Relative Humidity:  83%
  Winds from the S  (190 degs) at  7 mph.
  Altimeter:29.94 inches of mercury.
  The prevailing visibility was 10 miles.

The weather observed at FRANKLIN/J B ROS, VA (KFKN) at 06:15 AM EDT was:
  The skies were clear.
  Temperature: 75F ( 24C)  Dewpoint:  70F ( 21C)  Relative Humidity:  83%
  Winds from the S  (180 degs) at  6 mph.
  Altimeter:29.94 inches of mercury.
  The prevailing visibility was 10 miles.

The weather observed at FRANKLIN/J B ROS, VA (KFKN) at 06:35 AM EDT was:
  The skies were clear.
  Temperature: 75F ( 24C)  Dewpoint:  70F ( 21C)  Relative Humidity:  83%
  Winds from the S  (190 degs) at  6 mph.
  Altimeter:29.93 inches of mercury.
  The prevailing visibility was 10 miles.

The weather observed at FRANKLIN/J B ROS, VA (KFKN) at 06:55 AM EDT was:
  The skies were clear.
  Temperature: 75F ( 24C)  Dewpoint:  70F ( 21C)  Relative Humidity:  83%
  Winds from the S  (180 degs) at  7 mph.
  Altimeter:29.93 inches of mercury.
  The prevailing visibility was 10 miles.

The weather observed at FRANKLIN/J B ROS, VA (KFKN) at 07:15 AM EDT was:
  The skies were clear.
  Temperature: 77F ( 25C)  Dewpoint:  70F ( 21C)  Relative Humidity:  78%
  Winds from the S  (180 degs) at  6 mph.
  Altimeter:29.93 inches of mercury.
  The prevailing visibility was 10 miles.

The weather observed at FRANKLIN/J B ROS, VA (KFKN) at 07:35 AM EDT was:
  The skies were clear.
  Temperature: 77F ( 25C)  Dewpoint:  72F ( 22C)  Relative Humidity:  83%
  Winds from the S  (190 degs) at  3 mph.
  Altimeter:29.94 inches of mercury.
  The prevailing visibility was 10 miles.

The weather observed at FRANKLIN/J B ROS, VA (KFKN) at 07:55 AM EDT was:
  The skies were clear.
  Temperature: 77F ( 25C)  Dewpoint:  71F ( 22C)  Relative Humidity:  82%
  Winds from the S  (170 degs) at  8 mph.
  Altimeter:29.94 inches of mercury.
  The prevailing visibility was 10 miles.
  The maximum temperature in the past 6 hours was  80F.

The weather observed at FRANKLIN/J B ROS, VA (KFKN) at 08:15 AM EDT was:
  The skies were clear.
  Temperature: 79F ( 26C)  Dewpoint:  72F ( 22C)  Relative Humidity:  79%
  Winds from the S  (190 degs) at  9 mph.
  Altimeter:29.94 inches of mercury.
  The prevailing visibility was 10 miles.

The weather observed at FRANKLIN/J B ROS, VA (KFKN) at 08:35 AM EDT was:
  The skies were clear.
  Temperature: 79F ( 26C)  Dewpoint:  72F ( 22C)  Relative Humidity:  79%
  Winds from the CLM(CLM degs) at  0 mph.
  Altimeter:29.95 inches of mercury.
  The prevailing visibility was 10 miles.

The weather observed at FRANKLIN/J B ROS, VA (KFKN) at 08:55 AM EDT was:
  The skies were clear.
  Temperature: 81F ( 27C)  Dewpoint:  72F ( 22C)  Relative Humidity:  74%
  Winds from the SSW(200 degs) at  5 mph.
  Altimeter:29.95 inches of mercury.
  The prevailing visibility was 10 miles.

The weather observed at FRANKLIN/J B ROS, VA (KFKN) at 09:15 AM EDT was:
  The skies were clear.
  Temperature: 81F ( 27C)  Dewpoint:  73F ( 23C)  Relative Humidity:  79%
  Winds from the SSW(200 degs) at  5 mph.
  Altimeter:29.95 inches of mercury.
  The prevailing visibility was 10 miles.

The weather observed at FRANKLIN/J B ROS, VA (KFKN) at 09:35 AM EDT was:
  The skies were clear.
  Temperature: 82F ( 28C)  Dewpoint:  73F ( 23C)  Relative Humidity:  74%
  Winds from the S  (180 degs) at  7 mph.
  Altimeter:29.94 inches of mercury.
  The prevailing visibility was 10 miles.

The weather observed at FRANKLIN/J B ROS, VA (KFKN) at 09:55 AM EDT was:
  The skies were clear.
  Temperature: 82F ( 28C)  Dewpoint:  73F ( 23C)  Relative Humidity:  74%
  Winds from the SW (210 degs) at  8 mph.
  Altimeter:29.94 inches of mercury.
  The prevailing visibility was 10 miles.

The weather observed at FRANKLIN/J B ROS, VA (KFKN) at 10:15 AM EDT was:
  The skies were clear.
  Temperature: 82F ( 28C)  Dewpoint:  73F ( 23C)  Relative Humidity:  74%
  Winds from the SSW(200 degs) at  6 mph.
  Altimeter:29.94 inches of mercury.
  The prevailing visibility was 10 miles.

The weather observed at FRANKLIN/J B ROS, VA (KFKN) at 10:35 AM EDT was:
  The skies were clear.
  Temperature: 82F ( 28C)  Dewpoint:  73F ( 23C)  Relative Humidity:  74%
  Winds from the S  (190 degs) at  8 mph.
  Altimeter:29.94 inches of mercury.
  The prevailing visibility was 10 miles.

The weather observed at FRANKLIN/J B ROS, VA (KFKN) at 10:55 AM EDT was:
  The skies were clear.
  Temperature: 84F ( 29C)  Dewpoint:  73F ( 23C)  Relative Humidity:  70%
  Winds from the S  (170 degs) at  8 mph.
  Altimeter:29.94 inches of mercury.
  The prevailing visibility was 10 miles.

The weather observed at FRANKLIN/J B ROS, VA (KFKN) at 11:15 AM EDT was:
  The skies were clear.
  Temperature: 86F ( 30C)  Dewpoint:  73F ( 23C)  Relative Humidity:  66%
  Winds from the SW (210 degs) at  9 mph.
  Altimeter:29.95 inches of mercury.
  The prevailing visibility was 10 miles.

The weather observed at FRANKLIN/J B ROS, VA (KFKN) at 11:35 AM EDT was:
  The skies were clear.
  Temperature: 86F ( 30C)  Dewpoint:  73F ( 23C)  Relative Humidity:  66%
  Winds from the SW (220 degs) at  9 mph.
  Altimeter:29.95 inches of mercury.
  The prevailing visibility was 10 miles.

The weather observed at FRANKLIN/J B ROS, VA (KFKN) at 11:55 AM EDT was:
  The skies were clear.
  Temperature: 88F ( 31C)  Dewpoint:  73F ( 23C)  Relative Humidity:  62%
  Winds from the SW (230 degs) at  6 mph.
  Altimeter:29.95 inches of mercury.
  The prevailing visibility was 10 miles.

The weather observed at FRANKLIN/J B ROS, VA (KFKN) at 12:15 PM EDT was:
  The skies were clear.
  Temperature: 90F ( 32C)  Dewpoint:  75F ( 24C)  Relative Humidity:  63%
  Winds from the SW (210 degs) at  9 mph.
  Altimeter:29.94 inches of mercury.
  The prevailing visibility was 10 miles.

The weather observed at FRANKLIN/J B ROS, VA (KFKN) at 12:35 PM EDT was:
  The skies were clear.
  Temperature: 90F ( 32C)  Dewpoint:  75F ( 24C)  Relative Humidity:  63%
  Winds from the SW (210 degs) at  8 mph.
  Altimeter:29.93 inches of mercury.
  The prevailing visibility was 10 miles.

The weather observed at FRANKLIN/J B ROS, VA (KFKN) at 12:55 PM EDT was:
  The skies were clear.
  Temperature: 90F ( 32C)  Dewpoint:  75F ( 24C)  Relative Humidity:  63%
  Winds from the S  (180 degs) at 10 mph.
  Altimeter:29.93 inches of mercury.
  The prevailing visibility was 10 miles.

The weather observed at FRANKLIN/J B ROS, VA (KFKN) at 01:15 PM EDT was:
  The skies were clear.
  Temperature: 91F ( 33C)  Dewpoint:  75F ( 24C)  Relative Humidity:  59%
  Winds from the SW (230 degs) at  8 mph.
  Altimeter:29.92 inches of mercury.
  The prevailing visibility was 10 miles.

The weather observed at FRANKLIN/J B ROS, VA (KFKN) at 01:35 PM EDT was:
  The skies were clear.
  Temperature: 91F ( 33C)  Dewpoint:  73F ( 23C)  Relative Humidity:  56%
  Winds from the S  (190 degs) at 12 mph.
  Altimeter:29.92 inches of mercury.
  The prevailing visibility was 10 miles.

The weather observed at FRANKLIN/J B ROS, VA (KFKN) at 01:55 PM EDT was:
  The skies were clear.
  Temperature: 91F ( 33C)  Dewpoint:  75F ( 24C)  Relative Humidity:  58%
  Winds from the S  (190 degs) at 12 mph.
  Altimeter:29.91 inches of mercury.
  The prevailing visibility was 10 miles.
  The maximum temperature in the past 6 hours was  91F.

The weather observed at FRANKLIN/J B ROS, VA (KFKN) at 02:15 PM EDT was:
  The skies were clear.
  Temperature: 91F ( 33C)  Dewpoint:  75F ( 24C)  Relative Humidity:  59%
  Winds from the SSW(200 degs) at  5 mph.
  Altimeter:29.91 inches of mercury.
  The prevailing visibility was 10 miles.

The weather observed at FRANKLIN/J B ROS, VA (KFKN) at 02:35 PM EDT was:
  The skies were partly cloudy.
  Temperature: 91F ( 33C)  Dewpoint:  75F ( 24C)  Relative Humidity:  59%
  Winds from the SW (240 degs) at  6 mph.
  Altimeter:29.91 inches of mercury.
  The prevailing visibility was 10 miles.

The weather observed at FRANKLIN/J B ROS, VA (KFKN) at 02:55 PM EDT was:
  The skies were partly cloudy.
  Temperature: 93F ( 34C)  Dewpoint:  75F ( 24C)  Relative Humidity:  56%
  Winds from the SW (220 degs) at  8 mph.
  Altimeter:29.90 inches of mercury.
  The prevailing visibility was 10 miles.

The weather observed at FRANKLIN/J B ROS, VA (KFKN) at 03:15 PM EDT was:
  The skies were partly cloudy.
  Temperature: 93F ( 34C)  Dewpoint:  75F ( 24C)  Relative Humidity:  56%
  Winds from the SW (210 degs) at 10 mph.
  Altimeter:29.90 inches of mercury.
  The prevailing visibility was 10 miles.

The weather observed at FRANKLIN/J B ROS, VA (KFKN) at 03:35 PM EDT was:
  The skies were partly cloudy.
  Temperature: 93F ( 34C)  Dewpoint:  75F ( 24C)  Relative Humidity:  56%
  Winds from the S  (180 degs) at 12 mph.
  Altimeter:29.88 inches of mercury.
  The prevailing visibility was 10 miles.

The weather observed at FRANKLIN/J B ROS, VA (KFKN) at 03:55 PM EDT was:
  The skies were partly cloudy.
  Temperature: 91F ( 33C)  Dewpoint:  75F ( 24C)  Relative Humidity:  59%
  Winds from the SW (220 degs) at 13 mph.
  Altimeter:29.88 inches of mercury.
  The prevailing visibility was 10 miles.

The weather observed at FRANKLIN/J B ROS, VA (KFKN) at 04:15 PM EDT was:
  The skies were mostly cloudy.
  Temperature: 93F ( 34C)  Dewpoint:  75F ( 24C)  Relative Humidity:  56%
  Winds from the S  (180 degs) at 12 mph.
  Altimeter:29.88 inches of mercury.
  The prevailing visibility was 10 miles.

Short Range Forecast

Sorry no data found for fkn
Make sure fkn is a valid station
You might need to specify a nearby major city
Try Again

Zone Forecast

VAZ093-170200-
Isle of Wight-
Including the cities of Carrsville, Lees Mill, Benns Church,
Bethel Church, Carrollton, Lawson, and Longview
245 PM EDT Tue Jul 16 2024

...EXCESSIVE HEAT WARNING REMAINS IN EFFECT UNTIL 8 PM EDT THIS
EVENING...
...HEAT ADVISORY IN EFFECT FROM 11 AM TO 8 PM EDT WEDNESDAY...

.THIS AFTERNOON...Mostly sunny with a slight chance of showers
and thunderstorms. Highs in the upper 90s. Southwest winds around
10 mph with gusts up to 20 mph. Chance of rain 20 percent. Heat
index values up to 109.
.TONIGHT...Partly cloudy. A slight chance of showers and
thunderstorms in the evening. Humid with lows in the upper 70s.
Southwest winds 5 to 10 mph. Chance of rain 20 percent. Heat
index values up to 107 early in the evening.
.WEDNESDAY...Partly sunny. A chance of showers and thunderstorms
in the afternoon. Hot with highs in the mid 90s. Southwest winds
10 to 15 mph. Chance of rain 50 percent. Heat index values up to
110.
.WEDNESDAY NIGHT...Showers and thunderstorms likely. Humid with
lows in the mid 70s. Southwest winds 5 to 10 mph. Gusts up to
20 mph in the evening. Chance of rain 60 percent. Heat index
values up to 101 early in the evening.
.THURSDAY...Showers likely with a chance of thunderstorms in the
morning, then showers and thunderstorms likely in the afternoon.
Humid with highs in the mid 80s. Southwest winds 5 to 10 mph,
becoming northwest in the afternoon. Chance of rain 70 percent.
.THURSDAY NIGHT...Showers and thunderstorms likely in the
evening, then a chance of showers after midnight. Lows in the
lower 70s. Chance of rain 70 percent.
.FRIDAY...Mostly cloudy with a chance of showers. A chance of
thunderstorms in the afternoon. Highs in the lower 80s. Chance of
rain 40 percent.
.FRIDAY NIGHT...A chance of thunderstorms in the evening. Mostly
cloudy with a chance of showers. Lows in the lower 70s. Chance of
rain 50 percent.
.SATURDAY...Mostly cloudy with a chance of showers. A chance of
thunderstorms in the afternoon. Highs in the mid 80s. Chance of
rain 50 percent.
.SATURDAY NIGHT...Mostly cloudy with a chance of showers and
thunderstorms. Lows in the lower 70s. Chance of rain 50 percent.
.SUNDAY...Mostly cloudy with a chance of showers. A chance of
thunderstorms in the afternoon. Highs in the upper 80s. Chance of
rain 50 percent.
.SUNDAY NIGHT...Mostly cloudy with a chance of showers and
thunderstorms. Lows in the lower 70s. Chance of rain 50 percent.
.MONDAY...Mostly cloudy. A chance of showers in the morning, then
showers and thunderstorms likely in the afternoon. Highs in the
mid 80s. Chance of rain 60 percent.


State Forecast

Sorry no data found for fkn
Make sure fkn is a valid station
You might need to specify a nearby major city
Try Again

State Forecast Discussion

Sorry no data found for fkn
Make sure fkn is a valid station
You might need to specify a nearby major city
Try Again

GFS Short-Range Model Output Statistics (MOS) Forecast

KFKN   GFS MOS GUIDANCE    7/16/2024  1200 UTC
DT /JULY 16/JULY 17                /JULY 18                /JULY 19
HR   18 21 00 03 06 09 12 15 18 21 00 03 06 09 12 15 18 21 00 06 12
N/X                    79          95          75          85    68
TMP  93 96 90 84 82 80 82 88 93 91 85 80 77 77 77 80 82 80 76 70 72
DPT  72 71 74 77 77 77 78 76 75 75 75 76 76 75 76 75 74 74 74 70 72
CLD  CL SC SC SC SC SC BK SC SC BK OV OV OV OV OV OV OV OV OV OV OV
WDR  21 21 19 19 19 20 21 22 21 20 19 21 20 23 23 29 35 02 05 00 01
WSP  10 11 09 08 06 06 08 09 11 10 11 07 06 03 03 03 03 04 03 00 02
P06         3     3     9     9    46    42    30    34    57 41 20
P12                     9          46          60          66    46
Q06         0     0     0     0     1     1     0     1     5  1  0
Q12                     0           1           2           5     1
T06     27/24 16/10  2/ 1  7/ 1 48/27 27/ 7 17/ 1 25/ 0 46/13  8/ 0
T12           34/24        7/ 3       57/29       33/ 2    49/13
CIG   8  8  8  8  8  8  8  8  8  8  8  7  8  2  2  4  5  6  4  4  6
VIS   7  7  7  7  7  7  7  7  7  7  7  7  7  7  7  7  7  7  7  5  7
OBV   N  N  N  N  N  N  N  N  N  N  N  N  N  N  N  N  N  N  N BR  N

GFS Long-Range Model Output Statistics (MOS) Forecast

KFKN   GFSX MOS GUIDANCE   7/16/2024  1200 UTC
FHR  24  36| 48  60| 72  84| 96 108|120 132|144 156|168 180|192
     WED 17| THU 18| FRI 19| SAT 20| SUN 21| MON 22| TUE 23|WED CLIMO
N/X  79  95| 75  85| 68  87| 69  86| 69  88| 71  89| 70  90| 71 67 89
TMP  82  85| 77  76| 72  78| 74  77| 74  78| 75  81| 75  81| 76
DPT  78  75| 76  74| 72  70| 73  72| 74  74| 74  74| 73  73| 74
CLD  OV  OV| OV  OV| OV  OV| OV  OV| OV  OV| OV  OV| OV  PC| PC
WND   9  11| 11   4|  3   6|  3   4|  2   5|  5   5|  4   7|  4
P12   9  46| 60  66| 46  32| 23  48| 32  38| 41  39| 35  34| 26999999
P24      46|     84|     55|     50|     54|     58|     56|      999
Q12   0   1|  2   5|  1   0|  0   2|  0   1|  3   4|       |
Q24       1|      5|      1|      1|      1|      4|       |
T12  16  48| 35  53| 29  27| 14  39| 26  44| 27  40| 24  36| 19
T24        | 59    | 53    | 28    | 50    | 54    | 43    | 36

NGM Model Output Statistics (MOS) Forecast

Climatological Summary

Sorry no data found for fkn
Make sure fkn is a valid station
You might need to specify a nearby major city
Try Again

Watch and Warning Statment

Sorry no data found for fkn
Make sure fkn is a valid station
You might need to specify a nearby major city
or it could be THERE ARE NO WATCHES OR WARNINGS for fkn
Try Again

Park/Ski Recreation Report/Forecast

Sorry no data found for fkn
Make sure fkn is a valid station
You might need to specify a nearby major city
Try Again